sensor_id;sensor_type;location;lat;lon;timestamp;temperature;humidity
22787;DHT22;63134;52.020;4.714;2024-01-07T00:02:08;3.90;95.60
22787;DHT22;63134;52.020;4.714;2024-01-07T00:04:53;3.90;95.40
22787;DHT22;63134;52.020;4.714;2024-01-07T00:07:39;3.80;95.50
22787;DHT22;63134;52.020;4.714;2024-01-07T00:10:24;3.90;95.70
22787;DHT22;63134;52.020;4.714;2024-01-07T00:13:10;3.80;95.50
22787;DHT22;63134;52.020;4.714;2024-01-07T00:15:56;3.80;95.30
22787;DHT22;63134;52.020;4.714;2024-01-07T00:18:41;3.80;95.40
22787;DHT22;63134;52.020;4.714;2024-01-07T00:21:27;3.80;95.80
22787;DHT22;63134;52.020;4.714;2024-01-07T00:24:12;3.80;95.30
22787;DHT22;63134;52.020;4.714;2024-01-07T00:26:57;3.80;95.50
22787;DHT22;63134;52.020;4.714;2024-01-07T00:29:43;3.80;95.40
22787;DHT22;63134;52.020;4.714;2024-01-07T00:32:28;3.70;95.40
22787;DHT22;63134;52.020;4.714;2024-01-07T00:35:14;3.70;95.60
22787;DHT22;63134;52.020;4.714;2024-01-07T00:37:59;3.80;95.60
22787;DHT22;63134;52.020;4.714;2024-01-07T00:40:45;3.70;95.40
22787;DHT22;63134;52.020;4.714;2024-01-07T00:43:30;3.70;95.30
22787;DHT22;63134;52.020;4.714;2024-01-07T00:46:17;3.70;95.50
22787;DHT22;63134;52.020;4.714;2024-01-07T00:49:02;3.70;95.60
22787;DHT22;63134;52.020;4.714;2024-01-07T00:51:48;3.70;95.50
22787;DHT22;63134;52.020;4.714;2024-01-07T00:54:33;3.70;95.50
22787;DHT22;63134;52.020;4.714;2024-01-07T00:57:19;3.70;95.60
22787;DHT22;63134;52.020;4.714;2024-01-07T01:00:05;3.80;95.90
22787;DHT22;63134;52.020;4.714;2024-01-07T01:02:51;3.70;95.80
22787;DHT22;63134;52.020;4.714;2024-01-07T01:05:37;3.80;95.60
22787;DHT22;63134;52.020;4.714;2024-01-07T01:08:22;3.70;95.60
22787;DHT22;63134;52.020;4.714;2024-01-07T01:11:11;3.70;95.70
22787;DHT22;63134;52.020;4.714;2024-01-07T01:13:57;3.70;95.50
22787;DHT22;63134;52.020;4.714;2024-01-07T01:16:42;3.70;95.80
22787;DHT22;63134;52.020;4.714;2024-01-07T01:19:28;3.70;95.50
22787;DHT22;63134;52.020;4.714;2024-01-07T01:22:14;3.70;95.70
22787;DHT22;63134;52.020;4.714;2024-01-07T01:24:59;3.70;95.80
22787;DHT22;63134;52.020;4.714;2024-01-07T01:27:46;3.70;95.70
22787;DHT22;63134;52.020;4.714;2024-01-07T01:30:32;3.70;95.60
22787;DHT22;63134;52.020;4.714;2024-01-07T01:33:17;3.70;95.50
22787;DHT22;63134;52.020;4.714;2024-01-07T01:36:06;3.60;95.40
22787;DHT22;63134;52.020;4.714;2024-01-07T01:38:53;3.60;95.50
22787;DHT22;63134;52.020;4.714;2024-01-07T01:41:38;3.60;95.90
22787;DHT22;63134;52.020;4.714;2024-01-07T01:44:26;3.60;95.80
22787;DHT22;63134;52.020;4.714;2024-01-07T01:47:16;3.60;95.80
22787;DHT22;63134;52.020;4.714;2024-01-07T01:50:03;3.60;95.70
22787;DHT22;63134;52.020;4.714;2024-01-07T01:52:49;3.60;96.00
22787;DHT22;63134;52.020;4.714;2024-01-07T01:55:34;3.60;95.80
22787;DHT22;63134;52.020;4.714;2024-01-07T01:58:21;3.60;95.70
22787;DHT22;63134;52.020;4.714;2024-01-07T02:01:08;3.60;95.90
22787;DHT22;63134;52.020;4.714;2024-01-07T02:03:54;3.60;96.00
22787;DHT22;63134;52.020;4.714;2024-01-07T02:06:40;3.60;95.90
22787;DHT22;63134;52.020;4.714;2024-01-07T02:09:25;3.60;96.00
22787;DHT22;63134;52.020;4.714;2024-01-07T02:12:11;3.60;96.20
22787;DHT22;63134;52.020;4.714;2024-01-07T02:14:57;3.60;96.10
22787;DHT22;63134;52.020;4.714;2024-01-07T02:17:43;3.50;95.90
22787;DHT22;63134;52.020;4.714;2024-01-07T02:20:29;3.50;95.90
22787;DHT22;63134;52.020;4.714;2024-01-07T02:23:15;3.50;96.00
22787;DHT22;63134;52.020;4.714;2024-01-07T02:26:01;3.50;95.90
22787;DHT22;63134;52.020;4.714;2024-01-07T02:28:46;3.50;95.90
22787;DHT22;63134;52.020;4.714;2024-01-07T02:31:32;3.50;95.80
22787;DHT22;63134;52.020;4.714;2024-01-07T02:34:18;3.40;96.00
22787;DHT22;63134;52.020;4.714;2024-01-07T02:37:04;3.50;96.00
22787;DHT22;63134;52.020;4.714;2024-01-07T02:39:49;3.50;96.10
22787;DHT22;63134;52.020;4.714;2024-01-07T02:42:45;3.40;96.00
22787;DHT22;63134;52.020;4.714;2024-01-07T02:45:30;3.40;96.00
22787;DHT22;63134;52.020;4.714;2024-01-07T02:48:16;3.40;95.90
22787;DHT22;63134;52.020;4.714;2024-01-07T02:51:01;3.40;95.90
22787;DHT22;63134;52.020;4.714;2024-01-07T02:53:48;3.40;95.90
22787;DHT22;63134;52.020;4.714;2024-01-07T02:56:34;3.40;96.10
22787;DHT22;63134;52.020;4.714;2024-01-07T02:59:19;3.40;96.30
22787;DHT22;63134;52.020;4.714;2024-01-07T03:02:05;3.40;96.20
22787;DHT22;63134;52.020;4.714;2024-01-07T03:04:50;3.40;96.30
22787;DHT22;63134;52.020;4.714;2024-01-07T03:07:37;3.40;96.30
22787;DHT22;63134;52.020;4.714;2024-01-07T03:10:23;3.40;96.50
22787;DHT22;63134;52.020;4.714;2024-01-07T03:13:09;3.40;96.30
22787;DHT22;63134;52.020;4.714;2024-01-07T03:15:54;3.40;96.50
22787;DHT22;63134;52.020;4.714;2024-01-07T03:18:40;3.40;96.60
22787;DHT22;63134;52.020;4.714;2024-01-07T03:21:26;3.40;96.70
22787;DHT22;63134;52.020;4.714;2024-01-07T03:24:11;3.40;96.70
22787;DHT22;63134;52.020;4.714;2024-01-07T03:26:59;3.40;96.80
22787;DHT22;63134;52.020;4.714;2024-01-07T03:29:44;3.40;97.00
22787;DHT22;63134;52.020;4.714;2024-01-07T03:32:30;3.40;96.50
22787;DHT22;63134;52.020;4.714;2024-01-07T03:35:17;3.40;96.70
22787;DHT22;63134;52.020;4.714;2024-01-07T03:38:02;3.40;96.70
22787;DHT22;63134;52.020;4.714;2024-01-07T03:40:48;3.40;96.90
22787;DHT22;63134;52.020;4.714;2024-01-07T03:43:34;3.40;96.90
22787;DHT22;63134;52.020;4.714;2024-01-07T03:46:19;3.40;96.80
22787;DHT22;63134;52.020;4.714;2024-01-07T03:49:05;3.40;96.90
22787;DHT22;63134;52.020;4.714;2024-01-07T03:51:51;3.40;96.80
22787;DHT22;63134;52.020;4.714;2024-01-07T03:54:36;3.40;96.90
22787;DHT22;63134;52.020;4.714;2024-01-07T03:57:22;3.40;97.00
22787;DHT22;63134;52.020;4.714;2024-01-07T04:00:08;3.40;97.00
22787;DHT22;63134;52.020;4.714;2024-01-07T04:02:55;3.40;97.00
22787;DHT22;63134;52.020;4.714;2024-01-07T04:05:40;3.40;97.00
22787;DHT22;63134;52.020;4.714;2024-01-07T04:08:26;3.40;96.80
22787;DHT22;63134;52.020;4.714;2024-01-07T04:11:12;3.40;96.90
22787;DHT22;63134;52.020;4.714;2024-01-07T04:13:57;3.40;97.00
22787;DHT22;63134;52.020;4.714;2024-01-07T04:16:43;3.40;97.00
22787;DHT22;63134;52.020;4.714;2024-01-07T04:19:28;3.40;97.20
22787;DHT22;63134;52.020;4.714;2024-01-07T04:22:14;3.40;97.00
22787;DHT22;63134;52.020;4.714;2024-01-07T04:24:59;3.30;96.80
22787;DHT22;63134;52.020;4.714;2024-01-07T04:27:45;3.30;96.90
22787;DHT22;63134;52.020;4.714;2024-01-07T04:30:30;3.30;96.90
22787;DHT22;63134;52.020;4.714;2024-01-07T04:33:16;3.30;97.10
22787;DHT22;63134;52.020;4.714;2024-01-07T04:36:01;3.30;97.20
22787;DHT22;63134;52.020;4.714;2024-01-07T04:38:48;3.30;97.10
22787;DHT22;63134;52.020;4.714;2024-01-07T04:41:33;3.30;97.30
22787;DHT22;63134;52.020;4.714;2024-01-07T04:44:19;3.30;97.30
22787;DHT22;63134;52.020;4.714;2024-01-07T04:47:22;3.30;97.10
22787;DHT22;63134;52.020;4.714;2024-01-07T04:50:08;3.30;97.20
22787;DHT22;63134;52.020;4.714;2024-01-07T04:52:54;3.30;97.00
22787;DHT22;63134;52.020;4.714;2024-01-07T04:55:39;3.30;97.00
22787;DHT22;63134;52.020;4.714;2024-01-07T04:58:25;3.30;97.20
22787;DHT22;63134;52.020;4.714;2024-01-07T05:01:10;3.30;97.30
22787;DHT22;63134;52.020;4.714;2024-01-07T05:03:56;3.30;97.30
22787;DHT22;63134;52.020;4.714;2024-01-07T05:06:44;3.30;97.20
22787;DHT22;63134;52.020;4.714;2024-01-07T05:09:30;3.30;97.30
22787;DHT22;63134;52.020;4.714;2024-01-07T05:12:16;3.30;97.30
22787;DHT22;63134;52.020;4.714;2024-01-07T05:15:02;3.20;97.40
22787;DHT22;63134;52.020;4.714;2024-01-07T05:17:47;3.20;97.20
22787;DHT22;63134;52.020;4.714;2024-01-07T05:20:33;3.20;97.30
22787;DHT22;63134;52.020;4.714;2024-01-07T05:23:18;3.30;97.50
22787;DHT22;63134;52.020;4.714;2024-01-07T05:26:04;3.30;97.40
22787;DHT22;63134;52.020;4.714;2024-01-07T05:28:49;3.30;97.60
22787;DHT22;63134;52.020;4.714;2024-01-07T05:31:35;3.30;97.50
22787;DHT22;63134;52.020;4.714;2024-01-07T05:34:20;3.30;97.50
22787;DHT22;63134;52.020;4.714;2024-01-07T05:37:06;3.20;97.00
22787;DHT22;63134;52.020;4.714;2024-01-07T05:39:52;3.10;97.10
22787;DHT22;63134;52.020;4.714;2024-01-07T05:42:38;3.20;97.60
22787;DHT22;63134;52.020;4.714;2024-01-07T05:45:24;3.20;97.60
22787;DHT22;63134;52.020;4.714;2024-01-07T05:48:09;3.20;97.60
22787;DHT22;63134;52.020;4.714;2024-01-07T05:50:55;3.20;97.70
22787;DHT22;63134;52.020;4.714;2024-01-07T05:53:41;3.30;97.90
22787;DHT22;63134;52.020;4.714;2024-01-07T05:56:27;3.30;97.80
22787;DHT22;63134;52.020;4.714;2024-01-07T05:59:13;3.30;97.70
22787;DHT22;63134;52.020;4.714;2024-01-07T06:01:59;3.30;97.60
22787;DHT22;63134;52.020;4.714;2024-01-07T06:04:46;3.30;97.50
22787;DHT22;63134;52.020;4.714;2024-01-07T06:07:31;3.30;97.60
22787;DHT22;63134;52.020;4.714;2024-01-07T06:10:17;3.30;97.50
22787;DHT22;63134;52.020;4.714;2024-01-07T06:13:02;3.30;97.50
22787;DHT22;63134;52.020;4.714;2024-01-07T06:15:48;3.30;97.20
22787;DHT22;63134;52.020;4.714;2024-01-07T06:18:34;3.30;97.30
22787;DHT22;63134;52.020;4.714;2024-01-07T06:21:23;3.30;97.20
22787;DHT22;63134;52.020;4.714;2024-01-07T06:24:09;3.30;97.10
22787;DHT22;63134;52.020;4.714;2024-01-07T06:26:54;3.30;97.30
22787;DHT22;63134;52.020;4.714;2024-01-07T06:29:40;3.30;97.20
22787;DHT22;63134;52.020;4.714;2024-01-07T06:32:25;3.30;97.30
22787;DHT22;63134;52.020;4.714;2024-01-07T06:35:11;3.20;97.10
22787;DHT22;63134;52.020;4.714;2024-01-07T06:37:57;3.20;97.40
22787;DHT22;63134;52.020;4.714;2024-01-07T06:40:42;3.30;97.40
22787;DHT22;63134;52.020;4.714;2024-01-07T06:43:28;3.20;97.30
22787;DHT22;63134;52.020;4.714;2024-01-07T06:46:13;3.30;97.40
22787;DHT22;63134;52.020;4.714;2024-01-07T06:48:59;3.30;97.50
22787;DHT22;63134;52.020;4.714;2024-01-07T06:51:44;3.30;97.30
22787;DHT22;63134;52.020;4.714;2024-01-07T06:54:30;3.30;97.20
22787;DHT22;63134;52.020;4.714;2024-01-07T06:57:16;3.30;97.40
22787;DHT22;63134;52.020;4.714;2024-01-07T07:00:02;3.30;97.20
22787;DHT22;63134;52.020;4.714;2024-01-07T07:02:48;3.30;97.10
22787;DHT22;63134;52.020;4.714;2024-01-07T07:05:33;3.20;96.80
22787;DHT22;63134;52.020;4.714;2024-01-07T07:08:19;3.20;96.90
22787;DHT22;63134;52.020;4.714;2024-01-07T07:11:05;3.20;97.20
22787;DHT22;63134;52.020;4.714;2024-01-07T07:13:50;3.20;97.00
22787;DHT22;63134;52.020;4.714;2024-01-07T07:16:36;3.20;96.90
22787;DHT22;63134;52.020;4.714;2024-01-07T07:19:21;3.20;97.00
22787;DHT22;63134;52.020;4.714;2024-01-07T07:22:08;3.30;97.20
22787;DHT22;63134;52.020;4.714;2024-01-07T07:24:53;3.30;97.10
22787;DHT22;63134;52.020;4.714;2024-01-07T07:27:41;3.30;97.10
22787;DHT22;63134;52.020;4.714;2024-01-07T07:30:27;3.20;96.40
22787;DHT22;63134;52.020;4.714;2024-01-07T07:33:12;3.20;96.60
22787;DHT22;63134;52.020;4.714;2024-01-07T07:35:59;3.30;96.70
22787;DHT22;63134;52.020;4.714;2024-01-07T07:38:44;3.20;96.40
22787;DHT22;63134;52.020;4.714;2024-01-07T07:41:30;3.20;96.30
22787;DHT22;63134;52.020;4.714;2024-01-07T07:44:15;3.20;96.30
22787;DHT22;63134;52.020;4.714;2024-01-07T07:47:01;3.10;96.20
22787;DHT22;63134;52.020;4.714;2024-01-07T07:49:47;3.10;96.40
22787;DHT22;63134;52.020;4.714;2024-01-07T07:52:32;3.10;96.40
22787;DHT22;63134;52.020;4.714;2024-01-07T07:55:18;3.10;96.40
22787;DHT22;63134;52.020;4.714;2024-01-07T07:58:03;3.10;96.40
22787;DHT22;63134;52.020;4.714;2024-01-07T08:00:49;3.10;96.50
22787;DHT22;63134;52.020;4.714;2024-01-07T08:03:34;3.10;96.40
22787;DHT22;63134;52.020;4.714;2024-01-07T08:06:22;3.10;96.20
22787;DHT22;63134;52.020;4.714;2024-01-07T08:09:07;3.10;96.40
22787;DHT22;63134;52.020;4.714;2024-01-07T08:11:53;3.10;96.40
22787;DHT22;63134;52.020;4.714;2024-01-07T08:14:39;3.10;96.40
22787;DHT22;63134;52.020;4.714;2024-01-07T08:17:27;3.10;96.20
22787;DHT22;63134;52.020;4.714;2024-01-07T08:20:14;3.10;96.10
22787;DHT22;63134;52.020;4.714;2024-01-07T08:22:59;3.10;96.10
22787;DHT22;63134;52.020;4.714;2024-01-07T08:25:45;3.00;96.20
22787;DHT22;63134;52.020;4.714;2024-01-07T08:28:31;3.10;96.50
22787;DHT22;63134;52.020;4.714;2024-01-07T08:31:16;3.10;96.10
22787;DHT22;63134;52.020;4.714;2024-01-07T08:34:03;3.10;96.20
22787;DHT22;63134;52.020;4.714;2024-01-07T08:36:49;3.20;96.40
22787;DHT22;63134;52.020;4.714;2024-01-07T08:39:35;3.20;96.00
22787;DHT22;63134;52.020;4.714;2024-01-07T08:42:21;3.20;96.00
22787;DHT22;63134;52.020;4.714;2024-01-07T08:45:07;3.10;96.20
22787;DHT22;63134;52.020;4.714;2024-01-07T08:47:52;3.20;96.40
22787;DHT22;63134;52.020;4.714;2024-01-07T08:50:38;3.30;96.20
22787;DHT22;63134;52.020;4.714;2024-01-07T08:53:24;3.30;95.90
22787;DHT22;63134;52.020;4.714;2024-01-07T08:56:09;3.20;95.70
22787;DHT22;63134;52.020;4.714;2024-01-07T08:58:55;3.30;95.50
22787;DHT22;63134;52.020;4.714;2024-01-07T09:01:40;3.40;95.50
22787;DHT22;63134;52.020;4.714;2024-01-07T09:04:26;3.40;95.70
22787;DHT22;63134;52.020;4.714;2024-01-07T09:07:11;3.40;95.30
22787;DHT22;63134;52.020;4.714;2024-01-07T09:09:57;3.50;95.30
22787;DHT22;63134;52.020;4.714;2024-01-07T09:12:44;3.40;95.00
22787;DHT22;63134;52.020;4.714;2024-01-07T09:15:31;3.40;95.20
22787;DHT22;63134;52.020;4.714;2024-01-07T09:18:17;3.40;95.20
22787;DHT22;63134;52.020;4.714;2024-01-07T09:21:04;3.40;94.60
22787;DHT22;63134;52.020;4.714;2024-01-07T09:23:49;3.30;94.60
22787;DHT22;63134;52.020;4.714;2024-01-07T09:26:35;3.30;94.60
22787;DHT22;63134;52.020;4.714;2024-01-07T09:29:20;3.30;94.60
22787;DHT22;63134;52.020;4.714;2024-01-07T09:32:06;3.20;94.40
22787;DHT22;63134;52.020;4.714;2024-01-07T09:34:51;3.30;94.50
22787;DHT22;63134;52.020;4.714;2024-01-07T09:37:37;3.30;94.50
22787;DHT22;63134;52.020;4.714;2024-01-07T09:40:23;3.30;94.50
22787;DHT22;63134;52.020;4.714;2024-01-07T09:43:08;3.30;94.00
22787;DHT22;63134;52.020;4.714;2024-01-07T09:45:56;3.20;93.90
22787;DHT22;63134;52.020;4.714;2024-01-07T09:48:43;3.20;94.00
22787;DHT22;63134;52.020;4.714;2024-01-07T09:51:29;3.20;94.20
22787;DHT22;63134;52.020;4.714;2024-01-07T09:54:17;3.30;94.20
22787;DHT22;63134;52.020;4.714;2024-01-07T09:57:06;3.30;94.20
22787;DHT22;63134;52.020;4.714;2024-01-07T09:59:52;3.30;93.80
22787;DHT22;63134;52.020;4.714;2024-01-07T10:02:37;3.30;93.80
22787;DHT22;63134;52.020;4.714;2024-01-07T10:05:26;3.30;93.90
22787;DHT22;63134;52.020;4.714;2024-01-07T10:08:12;3.40;93.90
22787;DHT22;63134;52.020;4.714;2024-01-07T10:10:57;3.50;94.00
22787;DHT22;63134;52.020;4.714;2024-01-07T10:13:46;3.60;94.00
22787;DHT22;63134;52.020;4.714;2024-01-07T10:16:36;3.50;92.90
22787;DHT22;63134;52.020;4.714;2024-01-07T10:19:23;3.60;93.20
22787;DHT22;63134;52.020;4.714;2024-01-07T10:22:12;3.60;92.90
22787;DHT22;63134;52.020;4.714;2024-01-07T10:24:57;3.60;92.20
22787;DHT22;63134;52.020;4.714;2024-01-07T10:27:43;3.60;91.80
22787;DHT22;63134;52.020;4.714;2024-01-07T10:30:29;3.70;92.00
22787;DHT22;63134;52.020;4.714;2024-01-07T10:33:17;3.80;92.00
22787;DHT22;63134;52.020;4.714;2024-01-07T10:36:05;3.80;91.80
22787;DHT22;63134;52.020;4.714;2024-01-07T10:38:51;3.90;91.90
22787;DHT22;63134;52.020;4.714;2024-01-07T10:41:37;4.00;92.00
22787;DHT22;63134;52.020;4.714;2024-01-07T10:44:32;4.00;91.70
22787;DHT22;63134;52.020;4.714;2024-01-07T10:47:20;4.00;91.20
22787;DHT22;63134;52.020;4.714;2024-01-07T10:50:08;3.90;90.70
22787;DHT22;63134;52.020;4.714;2024-01-07T10:53:03;3.80;90.60
22787;DHT22;63134;52.020;4.714;2024-01-07T10:56:00;3.90;90.70
22787;DHT22;63134;52.020;4.714;2024-01-07T10:58:50;4.10;91.00
22787;DHT22;63134;52.020;4.714;2024-01-07T11:01:36;4.30;90.20
22787;DHT22;63134;52.020;4.714;2024-01-07T11:04:39;4.50;90.60
22787;DHT22;63134;52.020;4.714;2024-01-07T11:07:46;4.50;88.20
22787;DHT22;63134;52.020;4.714;2024-01-07T11:10:45;4.50;86.40
22787;DHT22;63134;52.020;4.714;2024-01-07T11:13:38;4.50;86.70
22787;DHT22;63134;52.020;4.714;2024-01-07T11:19:26;4.50;85.60
22787;DHT22;63134;52.020;4.714;2024-01-07T11:22:25;4.50;85.30
22787;DHT22;63134;52.020;4.714;2024-01-07T11:25:31;4.50;86.00
22787;DHT22;63134;52.020;4.714;2024-01-07T11:28:17;4.60;86.30
22787;DHT22;63134;52.020;4.714;2024-01-07T11:31:03;4.40;84.40
22787;DHT22;63134;52.020;4.714;2024-01-07T11:33:49;4.30;85.30
22787;DHT22;63134;52.020;4.714;2024-01-07T11:36:36;4.40;87.00
22787;DHT22;63134;52.020;4.714;2024-01-07T11:39:21;4.50;87.80
22787;DHT22;63134;52.020;4.714;2024-01-07T11:42:07;4.70;84.70
22787;DHT22;63134;52.020;4.714;2024-01-07T11:44:53;5.00;86.10
22787;DHT22;63134;52.020;4.714;2024-01-07T11:47:42;5.40;86.00
22787;DHT22;63134;52.020;4.714;2024-01-07T11:50:27;5.60;84.10
22787;DHT22;63134;52.020;4.714;2024-01-07T11:53:13;5.60;81.70
22787;DHT22;63134;52.020;4.714;2024-01-07T11:55:59;5.90;82.10
22787;DHT22;63134;52.020;4.714;2024-01-07T11:58:44;5.90;80.30
22787;DHT22;63134;52.020;4.714;2024-01-07T12:01:30;6.30;81.00
22787;DHT22;63134;52.020;4.714;2024-01-07T12:04:16;6.70;80.50
22787;DHT22;63134;52.020;4.714;2024-01-07T12:07:02;7.20;80.50
22787;DHT22;63134;52.020;4.714;2024-01-07T12:09:58;7.40;78.10
22787;DHT22;63134;52.020;4.714;2024-01-07T12:12:44;7.30;78.20
22787;DHT22;63134;52.020;4.714;2024-01-07T12:15:30;7.30;78.00
22787;DHT22;63134;52.020;4.714;2024-01-07T12:18:15;7.10;77.50
22787;DHT22;63134;52.020;4.714;2024-01-07T12:21:01;6.90;76.20
22787;DHT22;63134;52.020;4.714;2024-01-07T12:23:49;6.60;75.90
22787;DHT22;63134;52.020;4.714;2024-01-07T12:26:36;6.30;76.00
22787;DHT22;63134;52.020;4.714;2024-01-07T12:29:23;6.00;76.60
22787;DHT22;63134;52.020;4.714;2024-01-07T12:32:10;6.00;77.50
22787;DHT22;63134;52.020;4.714;2024-01-07T12:35:00;6.20;78.00
22787;DHT22;63134;52.020;4.714;2024-01-07T12:37:48;6.30;77.10
22787;DHT22;63134;52.020;4.714;2024-01-07T12:40:34;6.20;75.00
22787;DHT22;63134;52.020;4.714;2024-01-07T12:43:19;6.10;75.70
22787;DHT22;63134;52.020;4.714;2024-01-07T12:46:06;6.30;76.30
22787;DHT22;63134;52.020;4.714;2024-01-07T12:48:52;7.00;79.00
22787;DHT22;63134;52.020;4.714;2024-01-07T12:51:38;7.60;76.40
22787;DHT22;63134;52.020;4.714;2024-01-07T12:54:24;8.30;75.30
22787;DHT22;63134;52.020;4.714;2024-01-07T12:57:10;8.40;68.40
22787;DHT22;63134;52.020;4.714;2024-01-07T12:59:55;8.00;67.00
22787;DHT22;63134;52.020;4.714;2024-01-07T13:02:41;7.30;65.80
22787;DHT22;63134;52.020;4.714;2024-01-07T13:05:27;6.80;67.50
22787;DHT22;63134;52.020;4.714;2024-01-07T13:08:13;6.40;68.80
22787;DHT22;63134;52.020;4.714;2024-01-07T13:10:59;6.80;72.40
22787;DHT22;63134;52.020;4.714;2024-01-07T13:13:45;8.00;74.00
22787;DHT22;63134;52.020;4.714;2024-01-07T13:16:31;9.20;73.20
22787;DHT22;63134;52.020;4.714;2024-01-07T13:19:17;9.80;67.70
22787;DHT22;63134;52.020;4.714;2024-01-07T13:22:03;10.20;66.00
22787;DHT22;63134;52.020;4.714;2024-01-07T13:24:48;10.30;59.80
22787;DHT22;63134;52.020;4.714;2024-01-07T13:27:35;10.60;60.70
22787;DHT22;63134;52.020;4.714;2024-01-07T13:30:22;10.80;58.80
22787;DHT22;63134;52.020;4.714;2024-01-07T13:33:08;11.30;59.80
22787;DHT22;63134;52.020;4.714;2024-01-07T13:35:53;11.50;58.30
22787;DHT22;63134;52.020;4.714;2024-01-07T13:38:39;11.70;57.50
22787;DHT22;63134;52.020;4.714;2024-01-07T13:41:28;11.80;57.30
22787;DHT22;63134;52.020;4.714;2024-01-07T13:44:14;11.90;56.80
22787;DHT22;63134;52.020;4.714;2024-01-07T13:47:03;11.90;57.80
22787;DHT22;63134;52.020;4.714;2024-01-07T13:49:50;11.90;56.70
22787;DHT22;63134;52.020;4.714;2024-01-07T13:52:35;11.60;55.00
22787;DHT22;63134;52.020;4.714;2024-01-07T13:55:21;11.30;54.30
22787;DHT22;63134;52.020;4.714;2024-01-07T13:58:06;11.10;54.10
22787;DHT22;63134;52.020;4.714;2024-01-07T14:00:52;10.80;54.50
22787;DHT22;63134;52.020;4.714;2024-01-07T14:03:38;9.70;53.70
22787;DHT22;63134;52.020;4.714;2024-01-07T14:06:23;9.00;56.80
22787;DHT22;63134;52.020;4.714;2024-01-07T14:09:09;8.60;57.70
22787;DHT22;63134;52.020;4.714;2024-01-07T14:11:54;8.10;58.40
22787;DHT22;63134;52.020;4.714;2024-01-07T14:14:40;7.70;60.90
22787;DHT22;63134;52.020;4.714;2024-01-07T14:17:25;7.80;62.10
22787;DHT22;63134;52.020;4.714;2024-01-07T14:20:11;8.80;64.90
22787;DHT22;63134;52.020;4.714;2024-01-07T14:22:56;9.50;63.60
22787;DHT22;63134;52.020;4.714;2024-01-07T14:25:42;9.70;61.10
22787;DHT22;63134;52.020;4.714;2024-01-07T14:28:27;9.90;59.70
22787;DHT22;63134;52.020;4.714;2024-01-07T14:31:13;10.20;59.20
22787;DHT22;63134;52.020;4.714;2024-01-07T14:33:59;9.90;56.00
22787;DHT22;63134;52.020;4.714;2024-01-07T14:36:45;9.30;56.70
22787;DHT22;63134;52.020;4.714;2024-01-07T14:39:30;8.40;57.60
22787;DHT22;63134;52.020;4.714;2024-01-07T14:42:16;8.10;59.60
22787;DHT22;63134;52.020;4.714;2024-01-07T14:45:02;8.20;61.20
22787;DHT22;63134;52.020;4.714;2024-01-07T14:47:49;8.50;61.20
22787;DHT22;63134;52.020;4.714;2024-01-07T14:50:35;8.60;60.20
22787;DHT22;63134;52.020;4.714;2024-01-07T14:53:26;8.80;60.20
22787;DHT22;63134;52.020;4.714;2024-01-07T14:56:14;8.80;60.00
22787;DHT22;63134;52.020;4.714;2024-01-07T14:58:59;9.00;61.20
22787;DHT22;63134;52.020;4.714;2024-01-07T15:01:45;9.20;62.10
22787;DHT22;63134;52.020;4.714;2024-01-07T15:04:30;9.20;60.30
22787;DHT22;63134;52.020;4.714;2024-01-07T15:07:16;9.30;62.70
22787;DHT22;63134;52.020;4.714;2024-01-07T15:10:04;9.30;60.60
22787;DHT22;63134;52.020;4.714;2024-01-07T15:12:49;9.00;60.50
22787;DHT22;63134;52.020;4.714;2024-01-07T15:15:46;8.80;62.70
22787;DHT22;63134;52.020;4.714;2024-01-07T15:18:33;8.60;62.00
22787;DHT22;63134;52.020;4.714;2024-01-07T15:21:23;8.40;61.90
22787;DHT22;63134;52.020;4.714;2024-01-07T15:24:10;8.00;61.70
22787;DHT22;63134;52.020;4.714;2024-01-07T15:26:55;7.50;62.70
22787;DHT22;63134;52.020;4.714;2024-01-07T15:29:40;6.90;63.60
22787;DHT22;63134;52.020;4.714;2024-01-07T15:32:26;6.40;65.40
22787;DHT22;63134;52.020;4.714;2024-01-07T15:35:13;6.00;66.30
22787;DHT22;63134;52.020;4.714;2024-01-07T15:37:58;5.50;66.70
22787;DHT22;63134;52.020;4.714;2024-01-07T15:40:44;5.00;67.80
22787;DHT22;63134;52.020;4.714;2024-01-07T15:43:29;4.60;69.00
22787;DHT22;63134;52.020;4.714;2024-01-07T15:46:15;4.20;70.30
22787;DHT22;63134;52.020;4.714;2024-01-07T15:49:00;3.80;71.40
22787;DHT22;63134;52.020;4.714;2024-01-07T15:51:46;3.50;72.60
22787;DHT22;63134;52.020;4.714;2024-01-07T15:54:32;3.10;73.50
22787;DHT22;63134;52.020;4.714;2024-01-07T15:57:17;2.90;74.60
22787;DHT22;63134;52.020;4.714;2024-01-07T16:00:03;2.70;76.50
22787;DHT22;63134;52.020;4.714;2024-01-07T16:02:50;2.40;76.40
22787;DHT22;63134;52.020;4.714;2024-01-07T16:05:35;2.20;77.40
22787;DHT22;63134;52.020;4.714;2024-01-07T16:08:21;2.10;78.30
22787;DHT22;63134;52.020;4.714;2024-01-07T16:11:06;1.90;78.90
22787;DHT22;63134;52.020;4.714;2024-01-07T16:13:52;1.80;79.60
22787;DHT22;63134;52.020;4.714;2024-01-07T16:16:38;1.60;80.40
22787;DHT22;63134;52.020;4.714;2024-01-07T16:19:27;1.50;81.20
22787;DHT22;63134;52.020;4.714;2024-01-07T16:22:14;1.40;81.70
22787;DHT22;63134;52.020;4.714;2024-01-07T16:24:59;1.40;82.30
22787;DHT22;63134;52.020;4.714;2024-01-07T16:27:45;1.30;82.80
22787;DHT22;63134;52.020;4.714;2024-01-07T16:30:30;1.20;83.30
22787;DHT22;63134;52.020;4.714;2024-01-07T16:33:17;1.10;83.80
22787;DHT22;63134;52.020;4.714;2024-01-07T16:36:05;1.00;84.30
22787;DHT22;63134;52.020;4.714;2024-01-07T16:38:50;0.90;84.70
22787;DHT22;63134;52.020;4.714;2024-01-07T16:41:37;0.90;85.20
22787;DHT22;63134;52.020;4.714;2024-01-07T16:44:22;0.80;85.60
22787;DHT22;63134;52.020;4.714;2024-01-07T16:47:08;0.80;86.30
22787;DHT22;63134;52.020;4.714;2024-01-07T16:49:56;0.80;86.90
22787;DHT22;63134;52.020;4.714;2024-01-07T16:52:45;0.70;87.00
22787;DHT22;63134;52.020;4.714;2024-01-07T16:55:30;0.70;87.80
22787;DHT22;63134;52.020;4.714;2024-01-07T16:58:16;0.60;87.90
22787;DHT22;63134;52.020;4.714;2024-01-07T17:01:01;0.60;88.40
22787;DHT22;63134;52.020;4.714;2024-01-07T17:03:47;0.50;88.70
22787;DHT22;63134;52.020;4.714;2024-01-07T17:06:33;0.50;89.40
22787;DHT22;63134;52.020;4.714;2024-01-07T17:09:19;0.50;89.90
22787;DHT22;63134;52.020;4.714;2024-01-07T17:12:06;0.50;90.00
22787;DHT22;63134;52.020;4.714;2024-01-07T17:14:52;0.50;90.20
22787;DHT22;63134;52.020;4.714;2024-01-07T17:17:37;0.40;90.50
22787;DHT22;63134;52.020;4.714;2024-01-07T17:20:23;0.50;90.70
22787;DHT22;63134;52.020;4.714;2024-01-07T17:23:10;0.40;90.80
22787;DHT22;63134;52.020;4.714;2024-01-07T17:25:56;0.40;90.90
22787;DHT22;63134;52.020;4.714;2024-01-07T17:28:42;0.40;91.10
22787;DHT22;63134;52.020;4.714;2024-01-07T17:31:28;0.40;91.20
22787;DHT22;63134;52.020;4.714;2024-01-07T17:34:14;0.40;91.60
22787;DHT22;63134;52.020;4.714;2024-01-07T17:37:00;0.40;91.50
22787;DHT22;63134;52.020;4.714;2024-01-07T17:39:46;0.40;91.60
22787;DHT22;63134;52.020;4.714;2024-01-07T17:42:32;0.40;91.70
22787;DHT22;63134;52.020;4.714;2024-01-07T17:45:17;0.40;91.70
22787;DHT22;63134;52.020;4.714;2024-01-07T17:48:05;0.40;91.90
22787;DHT22;63134;52.020;4.714;2024-01-07T17:50:51;0.40;92.20